sensor_id;sensor_type;location;lat;lon;timestamp;pressure;altitude;pressure_sealevel;temperature;humidity
68634;BME280;55625;47.072;22.192;2024-03-08T00:00:24;99986.56;;;6.85;100.00
68634;BME280;55625;47.072;22.192;2024-03-08T00:02:50;99997.47;;;6.83;100.00
68634;BME280;55625;47.072;22.192;2024-03-08T00:05:17;99996.25;;;6.84;100.00
68634;BME280;55625;47.072;22.192;2024-03-08T00:07:44;99984.97;;;6.84;100.00
68634;BME280;55625;47.072;22.192;2024-03-08T00:10:11;99991.03;;;6.82;100.00
68634;BME280;55625;47.072;22.192;2024-03-08T00:12:42;99997.91;;;6.81;100.00
68634;BME280;55625;47.072;22.192;2024-03-08T00:15:14;99996.28;;;6.80;100.00
68634;BME280;55625;47.072;22.192;2024-03-08T00:17:41;99993.91;;;6.79;100.00
68634;BME280;55625;47.072;22.192;2024-03-08T00:20:07;99989.09;;;6.76;100.00
68634;BME280;55625;47.072;22.192;2024-03-08T00:22:37;99989.91;;;6.76;100.00
68634;BME280;55625;47.072;22.192;2024-03-08T00:25:05;99989.13;;;6.72;100.00
68634;BME280;55625;47.072;22.192;2024-03-08T00:27:34;99993.16;;;6.75;100.00
68634;BME280;55625;47.072;22.192;2024-03-08T00:30:01;99992.34;;;6.74;100.00
68634;BME280;55625;47.072;22.192;2024-03-08T00:32:27;99987.91;;;6.73;100.00
68634;BME280;55625;47.072;22.192;2024-03-08T00:34:56;99982.69;;;6.72;100.00
68634;BME280;55625;47.072;22.192;2024-03-08T00:37:22;99981.88;;;6.71;100.00
68634;BME280;55625;47.072;22.192;2024-03-08T00:39:50;99986.72;;;6.71;100.00
68634;BME280;55625;47.072;22.192;2024-03-08T00:42:19;99990.31;;;6.75;100.00
68634;BME280;55625;47.072;22.192;2024-03-08T00:44:46;99982.25;;;6.73;100.00
68634;BME280;55625;47.072;22.192;2024-03-08T00:47:12;99984.69;;;6.75;100.00
68634;BME280;55625;47.072;22.192;2024-03-08T00:49:38;99984.28;;;6.73;100.00
68634;BME280;55625;47.072;22.192;2024-03-08T00:52:06;99986.72;;;6.71;100.00
68634;BME280;55625;47.072;22.192;2024-03-08T00:54:34;99983.09;;;6.74;100.00
68634;BME280;55625;47.072;22.192;2024-03-08T00:57:02;99993.16;;;6.71;100.00
68634;BME280;55625;47.072;22.192;2024-03-08T00:59:31;99983.91;;;6.71;100.00
68634;BME280;55625;47.072;22.192;2024-03-08T01:01:59;99974.69;;;6.67;100.00
68634;BME280;55625;47.072;22.192;2024-03-08T01:04:26;99978.72;;;6.66;100.00
68634;BME280;55625;47.072;22.192;2024-03-08T01:06:58;99977.47;;;6.70;100.00
68634;BME280;55625;47.072;22.192;2024-03-08T01:09:25;99977.47;;;6.70;100.00
68634;BME280;55625;47.072;22.192;2024-03-08T01:11:53;99979.75;;;6.82;100.00
68634;BME280;55625;47.072;22.192;2024-03-08T01:14:21;99980.56;;;6.83;100.00
68634;BME280;55625;47.072;22.192;2024-03-08T01:16:48;99977.50;;;6.67;100.00
68634;BME280;55625;47.072;22.192;2024-03-08T01:19:14;99982.34;;;6.66;100.00
68634;BME280;55625;47.072;22.192;2024-03-08T01:21:41;99977.19;;;6.61;100.00
68634;BME280;55625;47.072;22.192;2024-03-08T01:24:08;99979.56;;;6.63;100.00
68634;BME280;55625;47.072;22.192;2024-03-08T01:26:34;99971.41;;;6.72;100.00
68634;BME280;55625;47.072;22.192;2024-03-08T01:29:01;99975.16;;;6.62;100.00
68634;BME280;55625;47.072;22.192;2024-03-08T01:31:30;99975.19;;;6.58;100.00
68634;BME280;55625;47.072;22.192;2024-03-08T01:33:57;99973.94;;;6.63;100.00
68634;BME280;55625;47.072;22.192;2024-03-08T01:36:23;99967.97;;;6.57;100.00
68634;BME280;55625;47.072;22.192;2024-03-08T01:38:51;99965.16;;;6.57;100.00
68634;BME280;55625;47.072;22.192;2024-03-08T01:41:17;99975.06;;;6.69;100.00
68634;BME280;55625;47.072;22.192;2024-03-08T01:43:44;99974.78;;;6.60;100.00
68634;BME280;55625;47.072;22.192;2024-03-08T01:46:13;99975.59;;;6.60;100.00
68634;BME280;55625;47.072;22.192;2024-03-08T01:48:42;99973.22;;;6.55;100.00
68634;BME280;55625;47.072;22.192;2024-03-08T01:51:09;99967.25;;;6.49;100.00
68634;BME280;55625;47.072;22.192;2024-03-08T01:53:37;99974.13;;;6.48;100.00
68634;BME280;55625;47.072;22.192;2024-03-08T01:56:05;99968.47;;;6.48;100.00
68634;BME280;55625;47.072;22.192;2024-03-08T01:58:32;99973.34;;;6.44;100.00
68634;BME280;55625;47.072;22.192;2024-03-08T02:00:59;99971.78;;;6.40;100.00
68634;BME280;55625;47.072;22.192;2024-03-08T02:03:25;99974.16;;;6.45;100.00
68634;BME280;55625;47.072;22.192;2024-03-08T02:05:51;99973.41;;;6.37;100.00
68634;BME280;55625;47.072;22.192;2024-03-08T02:08:19;99975.81;;;6.39;100.00
68634;BME280;55625;47.072;22.192;2024-03-08T02:10:48;99973.44;;;6.34;100.00
68634;BME280;55625;47.072;22.192;2024-03-08T02:13:15;99972.22;;;6.35;100.00
68634;BME280;55625;47.072;22.192;2024-03-08T02:15:54;99973.41;;;6.37;100.00
68634;BME280;55625;47.072;22.192;2024-03-08T02:18:23;99978.31;;;6.30;100.00
68634;BME280;55625;47.072;22.192;2024-03-08T02:20:56;99967.47;;;6.28;100.00
68634;BME280;55625;47.072;22.192;2024-03-08T02:23:23;99972.22;;;6.35;100.00
68634;BME280;55625;47.072;22.192;2024-03-08T02:25:54;99971.34;;;6.45;100.00
68634;BME280;55625;47.072;22.192;2024-03-08T02:28:22;99972.66;;;6.33;100.00
68634;BME280;55625;47.072;22.192;2024-03-08T02:30:50;99976.69;;;6.32;100.00
68634;BME280;55625;47.072;22.192;2024-03-08T02:33:17;99971.13;;;6.25;100.00
68634;BME280;55625;47.072;22.192;2024-03-08T02:35:44;99977.66;;;6.18;100.00
68634;BME280;55625;47.072;22.192;2024-03-08T02:38:16;99972.81;;;6.19;100.00
68634;BME280;55625;47.072;22.192;2024-03-08T02:40:43;99982.53;;;6.11;100.00
68634;BME280;55625;47.072;22.192;2024-03-08T02:43:11;99982.53;;;6.11;100.00
68634;BME280;55625;47.072;22.192;2024-03-08T02:45:37;99977.31;;;6.13;100.00
68634;BME280;55625;47.072;22.192;2024-03-08T02:48:05;99970.53;;;6.03;100.00
68634;BME280;55625;47.072;22.192;2024-03-08T02:50:34;99980.94;;;6.10;100.00
68634;BME280;55625;47.072;22.192;2024-03-08T02:53:01;99979.31;;;6.09;100.00
68634;BME280;55625;47.072;22.192;2024-03-08T02:55:27;99983.81;;;6.03;100.00
68634;BME280;55625;47.072;22.192;2024-03-08T02:57:54;99989.88;;;6.01;100.00
68634;BME280;55625;47.072;22.192;2024-03-08T03:00:23;99981.84;;;6.00;100.00
68634;BME280;55625;47.072;22.192;2024-03-08T03:02:50;99987.47;;;6.00;100.00
68634;BME280;55625;47.072;22.192;2024-03-08T03:05:23;99987.50;;;5.96;100.00
68634;BME280;55625;47.072;22.192;2024-03-08T03:07:50;99990.78;;;5.91;100.00
68634;BME280;55625;47.072;22.192;2024-03-08T03:10:19;99998.00;;;5.88;100.00
68634;BME280;55625;47.072;22.192;2024-03-08T03:12:48;99997.22;;;5.91;100.00
68634;BME280;55625;47.072;22.192;2024-03-08T03:15:18;99995.63;;;5.87;100.00
68634;BME280;55625;47.072;22.192;2024-03-08T03:17:51;99997.25;;;5.84;100.00
68634;BME280;55625;47.072;22.192;2024-03-08T03:20:18;99994.44;;;5.84;100.00
68634;BME280;55625;47.072;22.192;2024-03-08T03:22:52;99998.03;;;5.81;100.00
68634;BME280;55625;47.072;22.192;2024-03-08T03:25:20;99992.06;;;5.76;100.00
68634;BME280;55625;47.072;22.192;2024-03-08T03:27:55;99997.72;;;5.72;100.00
68634;BME280;55625;47.072;22.192;2024-03-08T03:30:24;100000.09;;;5.77;100.00
68634;BME280;55625;47.072;22.192;2024-03-08T03:32:53;99996.91;;;5.75;100.00
68634;BME280;55625;47.072;22.192;2024-03-08T03:35:21;99996.13;;;5.71;100.00
68634;BME280;55625;47.072;22.192;2024-03-08T03:37:48;99997.34;;;5.70;100.00
68634;BME280;55625;47.072;22.192;2024-03-08T03:40:30;99992.53;;;5.67;100.00
68634;BME280;55625;47.072;22.192;2024-03-08T03:42:57;100000.94;;;5.71;100.00
68634;BME280;55625;47.072;22.192;2024-03-08T03:45:23;99996.16;;;5.68;100.00
68634;BME280;55625;47.072;22.192;2024-03-08T03:47:49;99992.19;;;5.61;100.00
68634;BME280;55625;47.072;22.192;2024-03-08T03:50:16;99999.84;;;5.61;100.00
68634;BME280;55625;47.072;22.192;2024-03-08T03:52:42;100006.28;;;5.58;100.00
68634;BME280;55625;47.072;22.192;2024-03-08T03:55:08;99996.25;;;5.57;100.00
68634;BME280;55625;47.072;22.192;2024-03-08T03:57:34;99999.06;;;5.57;100.00
68634;BME280;55625;47.072;22.192;2024-03-08T04:00:00;99997.88;;;5.54;100.00
68634;BME280;55625;47.072;22.192;2024-03-08T04:02:28;99997.50;;;5.52;100.00
68634;BME280;55625;47.072;22.192;2024-03-08T04:04:54;100002.31;;;5.52;100.00
68634;BME280;55625;47.072;22.192;2024-03-08T04:07:21;100002.66;;;5.57;100.00
68634;BME280;55625;47.072;22.192;2024-03-08T04:09:47;100010.72;;;5.55;100.00
68634;BME280;55625;47.072;22.192;2024-03-08T04:12:13;100001.88;;;5.57;100.00
68634;BME280;55625;47.072;22.192;2024-03-08T04:14:42;100006.28;;;5.58;100.00
68634;BME280;55625;47.072;22.192;2024-03-08T04:17:08;100003.50;;;5.54;100.00
68634;BME280;55625;47.072;22.192;2024-03-08T04:19:35;100004.72;;;5.50;100.00
68634;BME280;55625;47.072;22.192;2024-03-08T04:22:01;100001.50;;;5.51;100.00
68634;BME280;55625;47.072;22.192;2024-03-08T04:24:28;99997.47;;;5.49;100.00
68634;BME280;55625;47.072;22.192;2024-03-08T04:26:54;100005.13;;;5.48;100.00
68634;BME280;55625;47.072;22.192;2024-03-08T04:29:20;100012.78;;;5.48;100.00
68634;BME280;55625;47.072;22.192;2024-03-08T04:31:47;100007.56;;;5.46;100.00
68634;BME280;55625;47.072;22.192;2024-03-08T04:34:13;100010.38;;;5.46;100.00
68634;BME280;55625;47.072;22.192;2024-03-08T04:36:40;100008.75;;;5.49;100.00
68634;BME280;55625;47.072;22.192;2024-03-08T04:39:06;100015.94;;;5.57;100.00
68634;BME280;55625;47.072;22.192;2024-03-08T04:41:38;100017.56;;;5.51;100.00
68634;BME280;55625;47.072;22.192;2024-03-08T04:44:04;100013.56;;;5.52;100.00
68634;BME280;55625;47.072;22.192;2024-03-08T04:46:30;100013.97;;;5.50;100.00
68634;BME280;55625;47.072;22.192;2024-03-08T04:48:56;100023.22;;;5.47;100.00
68634;BME280;55625;47.072;22.192;2024-03-08T04:51:22;100021.22;;;5.48;100.00
68634;BME280;55625;47.072;22.192;2024-03-08T04:53:48;100020.00;;;5.52;100.00
68634;BME280;55625;47.072;22.192;2024-03-08T04:56:15;100022.41;;;5.50;100.00
68634;BME280;55625;47.072;22.192;2024-03-08T04:58:41;100028.09;;;5.43;100.00
68634;BME280;55625;47.072;22.192;2024-03-08T05:01:07;100034.13;;;5.42;100.00
68634;BME280;55625;47.072;22.192;2024-03-08T05:03:36;100030.47;;;5.45;100.00
68634;BME280;55625;47.072;22.192;2024-03-08T05:06:02;100038.94;;;5.45;100.00
68634;BME280;55625;47.072;22.192;2024-03-08T05:08:28;100036.88;;;5.56;100.00
68634;BME280;55625;47.072;22.192;2024-03-08T05:10:54;100036.88;;;5.49;100.00
68634;BME280;55625;47.072;22.192;2024-03-08T05:13:20;100040.09;;;5.51;100.00
68634;BME280;55625;47.072;22.192;2024-03-08T05:15:49;100036.88;;;5.49;100.00
68634;BME280;55625;47.072;22.192;2024-03-08T05:18:18;100035.28;;;5.51;100.00
68634;BME280;55625;47.072;22.192;2024-03-08T05:20:44;100035.22;;;5.62;100.00
68634;BME280;55625;47.072;22.192;2024-03-08T05:23:10;100038.44;;;5.60;100.00
68634;BME280;55625;47.072;22.192;2024-03-08T05:25:36;100042.09;;;5.57;100.00
68634;BME280;55625;47.072;22.192;2024-03-08T05:28:02;100038.50;;;5.50;100.00
68634;BME280;55625;47.072;22.192;2024-03-08T05:30:29;100053.38;;;5.47;100.00
68634;BME280;55625;47.072;22.192;2024-03-08T05:32:56;100048.94;;;5.53;100.00
68634;BME280;55625;47.072;22.192;2024-03-08T05:35:22;100049.75;;;5.50;100.00
68634;BME280;55625;47.072;22.192;2024-03-08T05:37:48;100050.97;;;5.49;100.00
68634;BME280;55625;47.072;22.192;2024-03-08T05:40:14;100058.94;;;5.61;100.00
68634;BME280;55625;47.072;22.192;2024-03-08T05:42:40;100060.56;;;5.58;100.00
68634;BME280;55625;47.072;22.192;2024-03-08T05:45:07;100064.22;;;5.55;100.00
68634;BME280;55625;47.072;22.192;2024-03-08T05:47:33;100060.22;;;5.53;100.00
68634;BME280;55625;47.072;22.192;2024-03-08T05:49:59;100063.00;;;5.56;100.00
68634;BME280;55625;47.072;22.192;2024-03-08T05:52:25;100070.66;;;5.56;100.00
68634;BME280;55625;47.072;22.192;2024-03-08T05:54:52;100063.38;;;5.58;100.00
68634;BME280;55625;47.072;22.192;2024-03-08T05:57:18;100070.25;;;5.54;100.00
68634;BME280;55625;47.072;22.192;2024-03-08T05:59:44;100062.19;;;5.59;100.00
68634;BME280;55625;47.072;22.192;2024-03-08T06:02:10;100068.25;;;5.54;100.00
68634;BME280;55625;47.072;22.192;2024-03-08T06:04:36;100075.47;;;5.55;100.00
68634;BME280;55625;47.072;22.192;2024-03-08T06:07:03;100071.81;;;5.62;100.00
68634;BME280;55625;47.072;22.192;2024-03-08T06:09:30;100080.63;;;5.68;100.00
68634;BME280;55625;47.072;22.192;2024-03-08T06:11:56;100084.22;;;5.72;100.00
68634;BME280;55625;47.072;22.192;2024-03-08T06:14:23;100078.53;;;5.79;100.00
68634;BME280;55625;47.072;22.192;2024-03-08T06:16:49;100086.22;;;5.71;100.00
68634;BME280;55625;47.072;22.192;2024-03-08T06:19:18;100097.13;;;5.66;100.00
68634;BME280;55625;47.072;22.192;2024-03-08T06:21:44;100100.69;;;5.73;100.00
68634;BME280;55625;47.072;22.192;2024-03-08T06:24:10;100095.50;;;5.68;100.00
68634;BME280;55625;47.072;22.192;2024-03-08T06:26:36;100084.25;;;5.65;100.00
68634;BME280;55625;47.072;22.192;2024-03-08T06:29:03;100091.91;;;5.64;100.00
68634;BME280;55625;47.072;22.192;2024-03-08T06:31:32;100097.16;;;5.62;100.00
68634;BME280;55625;47.072;22.192;2024-03-08T06:33:58;100091.47;;;5.69;100.00
68634;BME280;55625;47.072;22.192;2024-03-08T06:36:24;100094.66;;;5.71;100.00
68634;BME280;55625;47.072;22.192;2024-03-08T06:38:51;100098.69;;;5.74;100.00
68634;BME280;55625;47.072;22.192;2024-03-08T06:41:17;100103.50;;;5.73;100.00
68634;BME280;55625;47.072;22.192;2024-03-08T06:43:47;100097.91;;;5.70;100.00
68634;BME280;55625;47.072;22.192;2024-03-08T06:46:15;100103.47;;;5.80;100.00
68634;BME280;55625;47.072;22.192;2024-03-08T06:48:41;100107.84;;;5.88;100.00
68634;BME280;55625;47.072;22.192;2024-03-08T06:51:07;100102.28;;;5.78;100.00
68634;BME280;55625;47.072;22.192;2024-03-08T06:53:33;100110.69;;;5.85;100.00
68634;BME280;55625;47.072;22.192;2024-03-08T06:56:04;100106.69;;;5.79;100.00
68634;BME280;55625;47.072;22.192;2024-03-08T06:58:30;100110.75;;;5.74;100.00
68634;BME280;55625;47.072;22.192;2024-03-08T07:00:56;100116.31;;;5.81;100.00
68634;BME280;55625;47.072;22.192;2024-03-08T07:03:26;100114.75;;;5.77;100.00
68634;BME280;55625;47.072;22.192;2024-03-08T07:05:53;100108.66;;;5.93;100.00
68634;BME280;55625;47.072;22.192;2024-03-08T07:08:19;100106.25;;;5.87;100.00
68634;BME280;55625;47.072;22.192;2024-03-08T07:10:45;100111.44;;;5.96;100.00
68634;BME280;55625;47.072;22.192;2024-03-08T07:13:11;100114.25;;;6.00;100.00
68634;BME280;55625;47.072;22.192;2024-03-08T07:15:37;100116.22;;;6.03;100.00
68634;BME280;55625;47.072;22.192;2024-03-08T07:18:03;100113.81;;;6.01;100.00
68634;BME280;55625;47.072;22.192;2024-03-08T07:20:29;100114.22;;;6.03;100.00
68634;BME280;55625;47.072;22.192;2024-03-08T07:22:55;100119.84;;;6.03;100.00
68634;BME280;55625;47.072;22.192;2024-03-08T07:25:21;100113.38;;;6.06;100.00
68634;BME280;55625;47.072;22.192;2024-03-08T07:27:52;100108.97;;;6.05;100.00
68634;BME280;55625;47.072;22.192;2024-03-08T07:30:21;100108.50;;;6.14;100.00
68634;BME280;55625;47.072;22.192;2024-03-08T07:33:06;100112.53;;;6.09;100.00
68634;BME280;55625;47.072;22.192;2024-03-08T07:35:33;100110.47;;;6.20;100.00
68634;BME280;55625;47.072;22.192;2024-03-08T07:38:09;100117.19;;;6.34;100.00
68634;BME280;55625;47.072;22.192;2024-03-08T07:40:40;100114.38;;;6.34;100.00
68634;BME280;55625;47.072;22.192;2024-03-08T07:43:07;100119.28;;;6.26;100.00
68634;BME280;55625;47.072;22.192;2024-03-08T07:45:33;100121.25;;;6.29;100.00
68634;BME280;55625;47.072;22.192;2024-03-08T07:48:01;100113.66;;;6.26;100.00
68634;BME280;55625;47.072;22.192;2024-03-08T07:50:28;100121.63;;;6.35;100.00
68634;BME280;55625;47.072;22.192;2024-03-08T07:52:55;100115.19;;;6.34;100.00
68634;BME280;55625;47.072;22.192;2024-03-08T07:55:21;100130.44;;;6.40;100.00
68634;BME280;55625;47.072;22.192;2024-03-08T07:57:50;100128.84;;;6.36;100.00
68634;BME280;55625;47.072;22.192;2024-03-08T08:00:16;100128.44;;;6.37;100.00
68634;BME280;55625;47.072;22.192;2024-03-08T08:02:47;100128.00;;;6.42;100.00
68634;BME280;55625;47.072;22.192;2024-03-08T08:05:16;100127.19;;;6.45;100.00
68634;BME280;55625;47.072;22.192;2024-03-08T08:07:47;100125.59;;;6.41;100.00
68634;BME280;55625;47.072;22.192;2024-03-08T08:10:13;100141.28;;;6.42;100.00
68634;BME280;55625;47.072;22.192;2024-03-08T08:12:44;100132.81;;;6.45;100.00
68634;BME280;55625;47.072;22.192;2024-03-08T08:15:11;100138.06;;;6.43;100.00
68634;BME280;55625;47.072;22.192;2024-03-08T08:17:38;100141.69;;;6.40;100.00
68634;BME280;55625;47.072;22.192;2024-03-08T08:20:05;100138.88;;;6.44;100.00
68634;BME280;55625;47.072;22.192;2024-03-08T08:22:31;100136.81;;;6.48;100.00
68634;BME280;55625;47.072;22.192;2024-03-08T08:24:58;100143.28;;;6.48;100.00
68634;BME280;55625;47.072;22.192;2024-03-08T08:27:24;100144.09;;;6.45;100.00
68634;BME280;55625;47.072;22.192;2024-03-08T08:29:52;100138.88;;;6.40;100.00
68634;BME280;55625;47.072;22.192;2024-03-08T08:32:18;100146.50;;;6.47;100.00
68634;BME280;55625;47.072;22.192;2024-03-08T08:34:44;100140.41;;;6.52;100.00
68634;BME280;55625;47.072;22.192;2024-03-08T08:37:10;100142.50;;;6.44;100.00
68634;BME280;55625;47.072;22.192;2024-03-08T08:39:36;100156.91;;;6.53;100.00
68634;BME280;55625;47.072;22.192;2024-03-08T08:42:04;100146.81;;;6.56;100.00
68634;BME280;55625;47.072;22.192;2024-03-08T08:44:30;100143.28;;;6.48;100.00
68634;BME280;55625;47.072;22.192;2024-03-08T08:46:57;100148.06;;;6.51;100.00
68634;BME280;55625;47.072;22.192;2024-03-08T08:49:24;100144.81;;;6.57;100.00
68634;BME280;55625;47.072;22.192;2024-03-08T08:51:52;100148.00;;;6.59;100.00
68634;BME280;55625;47.072;22.192;2024-03-08T08:54:19;100147.16;;;6.62;100.00
68634;BME280;55625;47.072;22.192;2024-03-08T08:56:46;100147.28;;;6.51;100.00
68634;BME280;55625;47.072;22.192;2024-03-08T08:59:15;100154.56;;;6.45;100.00
68634;BME280;55625;47.072;22.192;2024-03-08T09:01:48;100155.78;;;6.44;100.00
68634;BME280;55625;47.072;22.192;2024-03-08T09:06:58;100156.94;;;6.50;100.00
68634;BME280;55625;47.072;22.192;2024-03-08T09:09:24;100153.75;;;6.48;100.00
68634;BME280;55625;47.072;22.192;2024-03-08T09:11:51;100157.75;;;6.50;100.00
68634;BME280;55625;47.072;22.192;2024-03-08T09:14:20;100153.72;;;6.51;100.00
68634;BME280;55625;47.072;22.192;2024-03-08T09:16:46;100150.38;;;6.64;100.00
68634;BME280;55625;47.072;22.192;2024-03-08T09:19:13;100145.03;;;6.73;100.00
68634;BME280;55625;47.072;22.192;2024-03-08T09:21:39;100149.13;;;6.68;100.00
68634;BME280;55625;47.072;22.192;2024-03-08T09:24:08;100148.31;;;6.68;100.00
68634;BME280;55625;47.072;22.192;2024-03-08T09:26:34;100148.63;;;6.80;100.00
68634;BME280;55625;47.072;22.192;2024-03-08T09:29:00;100147.47;;;6.74;100.00
68634;BME280;55625;47.072;22.192;2024-03-08T09:31:26;100137.38;;;6.73;100.00
68634;BME280;55625;47.072;22.192;2024-03-08T09:33:53;100145.38;;;6.82;100.00
68634;BME280;55625;47.072;22.192;2024-03-08T09:36:19;100142.41;;;6.96;100.00
68634;BME280;55625;47.072;22.192;2024-03-08T09:38:45;100148.47;;;6.95;100.00
68634;BME280;55625;47.072;22.192;2024-03-08T09:41:11;100149.75;;;6.87;100.00
68634;BME280;55625;47.072;22.192;2024-03-08T09:43:39;100147.69;;;6.91;100.00
68634;BME280;55625;47.072;22.192;2024-03-08T09:46:05;100154.16;;;6.91;100.00
68634;BME280;55625;47.072;22.192;2024-03-08T09:48:35;100142.88;;;6.91;100.00
68634;BME280;55625;47.072;22.192;2024-03-08T09:51:02;100148.19;;;6.82;100.00
68634;BME280;55625;47.072;22.192;2024-03-08T09:53:29;100144.63;;;6.78;100.00
68634;BME280;55625;47.072;22.192;2024-03-08T09:55:55;100154.28;;;6.77;100.00
68634;BME280;55625;47.072;22.192;2024-03-08T09:58:22;100153.88;;;6.78;100.00
68634;BME280;55625;47.072;22.192;2024-03-08T10:01:00;100158.72;;;6.78;100.00
68634;BME280;55625;47.072;22.192;2024-03-08T10:03:30;100160.78;;;6.74;100.00
68634;BME280;55625;47.072;22.192;2024-03-08T10:06:02;100153.50;;;6.76;100.00
68634;BME280;55625;47.072;22.192;2024-03-08T10:08:29;100153.84;;;6.82;100.00
68634;BME280;55625;47.072;22.192;2024-03-08T10:10:58;100159.56;;;6.75;100.00
68634;BME280;55625;47.072;22.192;2024-03-08T10:13:25;100157.53;;;6.72;100.00
68634;BME280;55625;47.072;22.192;2024-03-08T10:15:54;100164.41;;;6.71;100.00
68634;BME280;55625;47.072;22.192;2024-03-08T10:18:21;100162.75;;;6.73;100.00
68634;BME280;55625;47.072;22.192;2024-03-08T10:21:08;100166.81;;;6.72;100.00
68634;BME280;55625;47.072;22.192;2024-03-08T10:23:36;100162.75;;;6.73;100.00
68634;BME280;55625;47.072;22.192;2024-03-08T10:26:16;100163.97;;;6.72;100.00
68634;BME280;55625;47.072;22.192;2024-03-08T10:28:48;100170.44;;;6.73;100.00
68634;BME280;55625;47.072;22.192;2024-03-08T10:31:16;100161.88;;;6.83;100.00
68634;BME280;55625;47.072;22.192;2024-03-08T10:33:42;100164.13;;;6.99;100.00
68634;BME280;55625;47.072;22.192;2024-03-08T10:36:09;100167.22;;;6.74;100.00
68634;BME280;55625;47.072;22.192;2024-03-08T10:38:41;100171.28;;;6.66;100.00
68634;BME280;55625;47.072;22.192;2024-03-08T10:41:13;100164.41;;;6.71;100.00
68634;BME280;55625;47.072;22.192;2024-03-08T10:49:25;100164.38;;;6.78;100.00
68634;BME280;55625;47.072;22.192;2024-03-08T10:51:55;100161.97;;;6.76;100.00
68634;BME280;55625;47.072;22.192;2024-03-08T10:54:22;100158.66;;;6.85;100.00
68634;BME280;55625;47.072;22.192;2024-03-08T10:56:50;100160.25;;;6.86;100.00
68634;BME280;55625;47.072;22.192;2024-03-08T10:59:18;100152.97;;;6.89;100.00
68634;BME280;55625;47.072;22.192;2024-03-08T11:01:45;100158.22;;;6.87;100.00
68634;BME280;55625;47.072;22.192;2024-03-08T11:04:11;100155.03;;;6.84;100.00
68634;BME280;55625;47.072;22.192;2024-03-08T11:12:27;100157.81;;;6.88;100.00
68634;BME280;55625;47.072;22.192;2024-03-08T11:15:12;100160.56;;;6.95;100.00
68634;BME280;55625;47.072;22.192;2024-03-08T11:22:43;100153.38;;;6.87;100.00
68634;BME280;55625;47.072;22.192;2024-03-08T11:28:11;100148.22;;;6.78;100.00
68634;BME280;55625;47.072;22.192;2024-03-08T11:33:30;100151.78;;;6.86;100.00
68634;BME280;55625;47.072;22.192;2024-03-08T11:36:10;100146.13;;;6.86;100.00
68634;BME280;55625;47.072;22.192;2024-03-08T11:38:44;100152.53;;;6.90;100.00
68634;BME280;55625;47.072;22.192;2024-03-08T11:41:10;100141.25;;;6.90;100.00
68634;BME280;55625;47.072;22.192;2024-03-08T11:43:40;100142.88;;;6.91;100.00
68634;BME280;55625;47.072;22.192;2024-03-08T11:46:11;100147.66;;;6.94;100.00
68634;BME280;55625;47.072;22.192;2024-03-08T11:48:41;100131.56;;;6.91;100.00
68634;BME280;55625;47.072;22.192;2024-03-08T11:51:15;100137.13;;;6.98;100.00
68634;BME280;55625;47.072;22.192;2024-03-08T11:53:41;100130.66;;;7.01;100.00
68634;BME280;55625;47.072;22.192;2024-03-08T11:56:12;100132.34;;;6.95;100.00
68634;BME280;55625;47.072;22.192;2024-03-08T11:58:40;100138.78;;;6.96;100.00
68634;BME280;55625;47.072;22.192;2024-03-08T12:01:08;100134.31;;;6.98;100.00
68634;BME280;55625;47.072;22.192;2024-03-08T12:03:39;100127.44;;;6.99;100.00
68634;BME280;55625;47.072;22.192;2024-03-08T12:06:09;100128.25;;;7.00;100.00
68634;BME280;55625;47.072;22.192;2024-03-08T12:08:38;100134.69;;;7.00;100.00
68634;BME280;55625;47.072;22.192;2024-03-08T12:11:05;100130.19;;;7.10;100.00
68634;BME280;55625;47.072;22.192;2024-03-08T12:13:33;100134.25;;;7.05;100.00
68634;BME280;55625;47.072;22.192;2024-03-08T12:16:02;100126.59;;;7.02;100.00
68634;BME280;55625;47.072;22.192;2024-03-08T12:18:34;100129.47;;;6.99;100.00
68634;BME280;55625;47.072;22.192;2024-03-08T12:21:12;100119.41;;;6.98;100.00
68634;BME280;55625;47.072;22.192;2024-03-08T12:23:40;100128.25;;;7.00;100.00
68634;BME280;55625;47.072;22.192;2024-03-08T12:26:17;100121.75;;;7.03;100.00
68634;BME280;55625;47.072;22.192;2024-03-08T12:28:45;100126.56;;;7.09;100.00
68634;BME280;55625;47.072;22.192;2024-03-08T12:31:17;100122.44;;;7.18;100.00
68634;BME280;55625;47.072;22.192;2024-03-08T12:33:55;100122.34;;;7.25;100.00
68634;BME280;55625;47.072;22.192;2024-03-08T12:36:25;100119.78;;;7.34;100.00
68634;BME280;55625;47.072;22.192;2024-03-08T12:38:53;100119.69;;;7.44;100.00
68634;BME280;55625;47.072;22.192;2024-03-08T12:41:20;100114.00;;;7.48;100.00
68634;BME280;55625;47.072;22.192;2024-03-08T12:43:48;100114.69;;;7.56;100.00
68634;BME280;55625;47.072;22.192;2024-03-08T12:46:18;100109.38;;;7.61;100.00
68634;BME280;55625;47.072;22.192;2024-03-08T12:48:52;100110.13;;;7.65;100.00
68634;BME280;55625;47.072;22.192;2024-03-08T12:51:20;100107.75;;;7.60;100.00
68634;BME280;55625;47.072;22.192;2024-03-08T12:53:47;100107.31;;;7.65;100.00
68634;BME280;55625;47.072;22.192;2024-03-08T12:56:19;100098.31;;;7.74;100.00
68634;BME280;55625;47.072;22.192;2024-03-08T12:58:54;100102.50;;;7.89;100.00
68634;BME280;55625;47.072;22.192;2024-03-08T13:01:20;100098.69;;;8.03;100.00
68634;BME280;55625;47.072;22.192;2024-03-08T13:03:46;100105.63;;;7.98;100.00
68634;BME280;55625;47.072;22.192;2024-03-08T13:06:12;100106.09;;;7.93;100.00
68634;BME280;55625;47.072;22.192;2024-03-08T13:08:38;100099.00;;;8.08;100.00
68634;BME280;55625;47.072;22.192;2024-03-08T13:11:08;100097.94;;;7.99;100.00